Welcome to Northern Hawkes Bay. New Zealand.
PWS Header
      nz Flag



Hit Counter


W3C Valid W3C Valid logo


    Wairoa

Select any of the Stations below to visit their websites.










Historic Data from Weather Underground
Select the location of interest below. Wairoa is the default. Please have patience, this Data is slow to load in.
Northern Hawkes Bay Historical Data
Daily Summary for July 13, 2017 Units:  Metric    English   Both
« Previous Day
Next Day »
Daily Weekly Monthly Yearly Custom
  High: Low: Average:
Temperature: 11.8 °C 5.0 °C 7.3 °C
Dew Point: 7.6 °C 1.1 °C 4.4 °C
Humidity: 97% 65% 82%
Wind Speed: 25.6km/h 0.0km/h 7.8km/h
Wind Gust: 41.7km/h - -
Wind- - WSW
Pressure: 1008.0 hPa 1001.2 hPa -
Precipitation: 14.7 mm    
Historical Graphs
 
 
Tabular Data for July 13, 2017
Time Temperature Dew Point Pressure Wind Wind Speed Wind Gust Humidity Rainfall Rate (Hourly) solar
00:04 7.5 °C 2.8 °C 1006.3 hPa West 17.2 km/h 29.4 km/h 72% 0.0 mm 0 W/m2
00:09 7.6 °C 2.9 °C 1006.3 hPa West 11.1 km/h 27.0 km/h 72% 0.0 mm 0 W/m2
00:14 7.6 °C 2.7 °C 1006.3 hPa West 23.3 km/h 31.7 km/h 71% 0.0 mm 0 W/m2
00:19 7.6 °C 2.7 °C 1006.3 hPa West 21.9 km/h 39.3 km/h 71% 0.0 mm 0 W/m2
00:24 7.6 °C 2.9 °C 1006.0 hPa West 15.8 km/h 41.7 km/h 72% 0.0 mm 0 W/m2
00:29 7.6 °C 2.9 °C 1006.0 hPa WSW 18.3 km/h 41.7 km/h 72% 0.0 mm 0 W/m2
00:34 7.7 °C 3.0 °C 1006.0 hPa WSW 19.5 km/h 35.6 km/h 72% 0.0 mm 0 W/m2
00:39 7.7 °C 3.0 °C 1006.3 hPa WSW 21.9 km/h 35.6 km/h 72% 0.0 mm 0 W/m2
00:44 7.6 °C 2.9 °C 1006.0 hPa WSW 17.2 km/h 34.3 km/h 72% 0.0 mm 0 W/m2
00:49 7.7 °C 3.0 °C 1006.0 hPa West 11.1 km/h 41.7 km/h 72% 0.0 mm 0 W/m2
00:51 7.7 °C 3.0 °C 1006.0 hPa West 14.8 km/h 41.7 km/h 72% 0.0 mm 0 W/m2
00:56 7.8 °C 3.3 °C 1006.0 hPa West 20.9 km/h 41.7 km/h 73% 0.0 mm 0 W/m2
01:01 7.8 °C 3.1 °C 1006.0 hPa WSW 19.5 km/h 35.6 km/h 72% 0.0 mm 0 W/m2
01:06 7.7 °C 3.0 °C 1006.0 hPa WSW 15.8 km/h 30.6 km/h 72% 0.0 mm 0 W/m2
01:11 7.6 °C 2.7 °C 1006.0 hPa WSW 14.8 km/h 30.6 km/h 71% 0.0 mm 0 W/m2
01:16 7.7 °C 2.8 °C 1005.6 hPa WSW 21.9 km/h 36.7 km/h 71% 0.0 mm 0 W/m2
01:21 7.7 °C 2.6 °C 1006.0 hPa WSW 21.9 km/h 36.7 km/h 70% 0.0 mm 0 W/m2
01:26 7.7 °C 2.4 °C 1005.6 hPa WSW 8.7 km/h 29.4 km/h 69% 0.0 mm 0 W/m2
01:31 7.6 °C 2.5 °C 1006.0 hPa WSW 15.8 km/h 28.0 km/h 70% 0.0 mm 0 W/m2
01:36 7.6 °C 2.5 °C 1006.0 hPa West 8.7 km/h 27.0 km/h 70% 0.0 mm 0 W/m2
01:41 7.5 °C 2.4 °C 1005.6 hPa West 8.7 km/h 27.0 km/h 70% 0.0 mm 0 W/m2
01:46 7.5 °C 2.4 °C 1006.0 hPa WSW 3.5 km/h 24.5 km/h 70% 0.0 mm 0 W/m2
01:51 7.4 °C 2.1 °C 1005.6 hPa West 11.1 km/h 27.0 km/h 69% 0.0 mm 0 W/m2
01:56 7.6 °C 2.1 °C 1005.6 hPa West 8.7 km/h 30.6 km/h 68% 0.0 mm 0 W/m2
02:01 7.6 °C 2.1 °C 1005.6 hPa WNW 6.1 km/h 30.6 km/h 68% 0.0 mm 0 W/m2
02:06 7.5 °C 2.0 °C 1005.6 hPa West 6.1 km/h 21.9 km/h 68% 0.0 mm 0 W/m2
02:11 7.5 °C 1.8 °C 1005.3 hPa West 3.5 km/h 17.2 km/h 67% 0.0 mm 0 W/m2
02:16 7.4 °C 1.9 °C 1005.6 hPa WNW 7.2 km/h 17.2 km/h 68% 0.0 mm 0 W/m2
02:21 7.0 °C 1.7 °C 1005.3 hPa NW 6.1 km/h 11.1 km/h 69% 0.0 mm 0 W/m2
02:26 6.9 °C 2.0 °C 1005.3 hPa NW 5.0 km/h 9.7 km/h 71% 0.0 mm 0 W/m2
02:31 6.8 °C 1.9 °C 1005.0 hPa NNW 9.7 km/h 12.2 km/h 71% 0.0 mm 0 W/m2
02:36 6.7 °C 2.0 °C 1005.0 hPa NW 5.0 km/h 12.2 km/h 72% 0.0 mm 0 W/m2
02:41 6.6 °C 1.9 °C 1005.0 hPa NW 5.0 km/h 12.2 km/h 72% 0.0 mm 0 W/m2
02:46 6.6 °C 1.9 °C 1005.0 hPa NW 6.1 km/h 17.2 km/h 72% 0.0 mm 0 W/m2
02:51 6.7 °C 2.0 °C 1005.0 hPa NW 2.6 km/h 21.9 km/h 72% 0.0 mm 0 W/m2
02:56 6.6 °C 1.9 °C 1004.6 hPa WNW 9.7 km/h 21.9 km/h 72% 0.0 mm 0 W/m2
03:01 6.8 °C 1.9 °C 1004.6 hPa NW 3.5 km/h 14.8 km/h 71% 0.0 mm 0 W/m2
03:06 7.0 °C 1.7 °C 1004.6 hPa WNW 6.1 km/h 15.8 km/h 69% 0.0 mm 0 W/m2
03:11 7.4 °C 1.7 °C 1004.3 hPa West 5.0 km/h 15.8 km/h 67% 0.0 mm 0 W/m2
03:16 7.4 °C 1.4 °C 1004.3 hPa West 7.2 km/h 12.2 km/h 66% 0.0 mm 0 W/m2
03:21 7.5 °C 1.6 °C 1003.9 hPa WNW 8.7 km/h 15.8 km/h 66% 0.0 mm 0 W/m2
03:26 7.6 °C 1.4 °C 1003.9 hPa WNW 5.0 km/h 15.8 km/h 65% 0.0 mm 0 W/m2
03:31 7.4 °C 1.3 °C 1003.9 hPa WNW 5.0 km/h 14.8 km/h 65% 0.0 mm 0 W/m2
03:36 7.0 °C 1.1 °C 1003.9 hPa NW 13.4 km/h 28.0 km/h 66% 0.0 mm 0 W/m2
03:41 6.9 °C 1.2 °C 1003.6 hPa NW 2.6 km/h 28.0 km/h 67% 0.0 mm 0 W/m2
03:46 6.8 °C 1.3 °C 1003.6 hPa WNW 8.7 km/h 23.3 km/h 68% 0.0 mm 0 W/m2
03:51 7.0 °C 1.3 °C 1003.6 hPa WNW 13.4 km/h 21.9 km/h 67% 0.0 mm 0 W/m2
03:56 7.2 °C 1.3 °C 1003.6 hPa WNW 8.7 km/h 21.9 km/h 66% 0.0 mm 0 W/m2
04:01 7.2 °C 1.3 °C 1003.3 hPa WNW 6.1 km/h 20.9 km/h 66% 0.0 mm 0 W/m2
04:06 7.1 °C 1.4 °C 1003.3 hPa WNW 8.7 km/h 20.9 km/h 67% 0.0 mm 0 W/m2
04:12 7.1 °C 1.6 °C 1002.9 hPa WNW 7.2 km/h 20.9 km/h 68% 0.0 mm 0 W/m2
04:17 7.0 °C 1.5 °C 1003.3 hPa NW 9.7 km/h 20.9 km/h 68% 0.0 mm 0 W/m2
04:22 6.9 °C 1.8 °C 1002.9 hPa NW 6.1 km/h 23.3 km/h 70% 0.0 mm 0 W/m2
04:27 6.8 °C 1.9 °C 1002.6 hPa WNW 12.2 km/h 28.0 km/h 71% 0.0 mm 0 W/m2
04:32 6.8 °C 2.1 °C 1002.6 hPa WNW 11.1 km/h 31.7 km/h 72% 0.0 mm 0 W/m2
04:37 6.7 °C 2.0 °C 1002.6 hPa WNW 9.7 km/h 31.7 km/h 72% 0.0 mm 0 W/m2
04:42 6.7 °C 2.0 °C 1002.6 hPa WNW 7.2 km/h 21.9 km/h 72% 0.0 mm 0 W/m2
04:47 6.5 °C 2.0 °C 1002.6 hPa WNW 9.7 km/h 21.9 km/h 73% 0.0 mm 0 W/m2
04:52 6.4 °C 1.9 °C 1002.6 hPa WNW 11.1 km/h 20.9 km/h 73% 0.0 mm 0 W/m2
04:57 6.4 °C 1.9 °C 1002.3 hPa NW 6.1 km/h 21.9 km/h 73% 0.0 mm 0 W/m2
05:02 6.4 °C 1.9 °C 1002.3 hPa NW 9.7 km/h 21.9 km/h 73% 0.0 mm 0 W/m2
05:07 6.3 °C 1.8 °C 1002.3 hPa NW 9.7 km/h 20.9 km/h 73% 0.0 mm 0 W/m2
05:12 6.3 °C 1.8 °C 1002.6 hPa NW 11.1 km/h 20.9 km/h 73% 0.0 mm 0 W/m2
05:17 6.4 °C 1.9 °C 1002.6 hPa NW 13.4 km/h 20.9 km/h 73% 0.0 mm 0 W/m2
05:22 6.3 °C 1.8 °C 1002.3 hPa NW 12.2 km/h 21.9 km/h 73% 0.0 mm 0 W/m2
05:27 6.2 °C 1.9 °C 1002.3 hPa NW 13.4 km/h 27.0 km/h 74% 0.0 mm 0 W/m2
05:32 6.0 °C 2.1 °C 1002.3 hPa NNW 13.4 km/h 27.0 km/h 76% 0.0 mm 0 W/m2
05:37 5.8 °C 2.4 °C 1002.3 hPa NNW 9.7 km/h 24.5 km/h 79% 0.3 mm 0 W/m2
05:42 5.7 °C 2.5 °C 1002.3 hPa NNW 9.7 km/h 21.9 km/h 80% 0.3 mm 0 W/m2
05:47 5.7 °C 2.7 °C 1001.9 hPa NW 8.7 km/h 15.8 km/h 81% 0.3 mm 0 W/m2
05:52 5.6 °C 2.9 °C 1002.3 hPa NW 6.1 km/h 15.8 km/h 83% 0.3 mm 0 W/m2
05:57 5.5 °C 2.8 °C 1001.9 hPa NW 7.2 km/h 15.8 km/h 83% 0.3 mm 0 W/m2
06:02 5.6 °C 2.9 °C 1002.3 hPa NNW 7.2 km/h 14.8 km/h 83% 0.3 mm 0 W/m2
06:07 5.6 °C 3.1 °C 1002.3 hPa NW 9.7 km/h 15.8 km/h 84% 0.5 mm 0 W/m2
06:13 5.4 °C 2.9 °C 1002.3 hPa NW 11.1 km/h 17.2 km/h 84% 0.5 mm 0 W/m2
06:18 5.4 °C 3.1 °C 1002.3 hPa NW 6.1 km/h 17.2 km/h 85% 0.5 mm 0 W/m2
06:23 5.3 °C 3.0 °C 1002.3 hPa NW 9.7 km/h 15.8 km/h 85% 0.5 mm 0 W/m2
06:28 5.3 °C 3.2 °C 1001.9 hPa NW 6.1 km/h 15.8 km/h 86% 1.0 mm 0 W/m2
06:33 5.3 °C 3.2 °C 1001.9 hPa NW 6.1 km/h 17.2 km/h 86% 0.5 mm 0 W/m2
06:38 5.2 °C 3.2 °C 1001.9 hPa NNW 5.0 km/h 17.2 km/h 87% 0.5 mm 0 W/m2
06:43 5.2 °C 3.2 °C 1001.9 hPa NNW 5.0 km/h 11.1 km/h 87% 0.5 mm 0 W/m2
06:48 5.2 °C 3.4 °C 1001.9 hPa NNW 6.1 km/h 11.1 km/h 88% 0.5 mm 0 W/m2
06:53 5.2 °C 3.4 °C 1001.9 hPa North 5.0 km/h 13.4 km/h 88% 0.5 mm 0 W/m2
06:58 5.2 °C 3.4 °C 1001.9 hPa NNW 6.1 km/h 13.4 km/h 88% 0.5 mm 0 W/m2
07:03 5.2 °C 3.4 °C 1001.6 hPa North 8.7 km/h 13.4 km/h 88% 0.5 mm 0 W/m2
07:08 5.3 °C 3.3 °C 1001.6 hPa NNW 7.2 km/h 13.4 km/h 87% 0.3 mm 0 W/m2
07:13 5.4 °C 3.4 °C 1001.6 hPa NW 2.6 km/h 12.2 km/h 87% 0.3 mm 0 W/m2
07:18 5.3 °C 3.2 °C 1001.6 hPa NW 2.6 km/h 9.7 km/h 86% 0.3 mm 0 W/m2
07:23 5.3 °C 3.2 °C 1001.6 hPa NW 1.1 km/h 7.2 km/h 86% 0.0 mm 0 W/m2
07:28 5.3 °C 3.2 °C 1001.6 hPa Calm   6.1 km/h 86% 0.0 mm 0 W/m2
07:34 5.3 °C 3.2 °C 1001.6 hPa Calm   5.0 km/h 86% 0.0 mm 0 W/m2
07:39 5.2 °C 3.1 °C 1001.6 hPa WSW 1.1 km/h 5.0 km/h 86% 0.0 mm 0 W/m2
07:44 5.3 °C 3.2 °C 1001.6 hPa West 9.7 km/h 14.8 km/h 86% 0.3 mm 0 W/m2
07:49 5.6 °C 3.4 °C 1001.6 hPa WNW 7.2 km/h 15.8 km/h 86% 0.3 mm 0 W/m2
07:54 5.6 °C 3.3 °C 1001.6 hPa WNW 7.2 km/h 15.8 km/h 85% 0.5 mm 0 W/m2
07:59 5.6 °C 3.3 °C 1001.6 hPa NW 7.2 km/h 14.8 km/h 85% 0.5 mm 0 W/m2
08:04 5.5 °C 3.3 °C 1001.6 hPa NW 3.5 km/h 13.4 km/h 86% 1.0 mm 1 W/m2
08:09 5.3 °C 3.3 °C 1001.2 hPa NNW 3.5 km/h 12.2 km/h 87% 1.3 mm 3 W/m2
08:14 5.3 °C 3.5 °C 1001.6 hPa NNW 2.6 km/h 7.2 km/h 88% 1.5 mm 5 W/m2
08:19 5.2 °C 3.6 °C 1001.6 hPa NNW 5.0 km/h 8.7 km/h 89% 1.5 mm 8 W/m2
08:24 5.2 °C 3.7 °C 1001.6 hPa North 6.1 km/h 11.1 km/h 90% 1.5 mm 11 W/m2
08:29 5.3 °C 3.8 °C 1001.6 hPa NNE 6.1 km/h 11.1 km/h 90% 1.5 mm 12 W/m2
08:34 5.4 °C 3.7 °C 1001.6 hPa NNE 3.5 km/h 11.1 km/h 89% 1.5 mm 10 W/m2
08:39 5.4 °C 3.7 °C 1001.6 hPa North 1.1 km/h 9.7 km/h 89% 1.5 mm 8 W/m2
08:44 5.4 °C 3.7 °C 1001.6 hPa NNE 1.1 km/h 7.2 km/h 89% 1.3 mm 7 W/m2
08:49 5.4 °C 3.7 °C 1001.2 hPa NNE 5.0 km/h 7.2 km/h 89% 1.5 mm 9 W/m2
08:54 5.4 °C 3.7 °C 1001.2 hPa NNE 5.0 km/h 8.7 km/h 89% 1.3 mm 10 W/m2
08:59 5.5 °C 3.8 °C 1001.6 hPa NNE 1.1 km/h 8.7 km/h 89% 1.0 mm 13 W/m2
09:04 5.5 °C 3.7 °C 1001.2 hPa North 1.1 km/h 8.7 km/h 88% 0.5 mm 15 W/m2
09:09 5.5 °C 3.8 °C 1001.6 hPa WSW 5.0 km/h 6.1 km/h 89% 0.5 mm 13 W/m2
09:14 5.4 °C 3.9 °C 1001.6 hPa WSW 1.1 km/h 6.1 km/h 90% 0.3 mm 12 W/m2
09:19 5.3 °C 3.8 °C 1001.9 hPa WSW 5.0 km/h 11.1 km/h 90% 0.5 mm 13 W/m2
09:24 5.4 °C 3.9 °C 1001.9 hPa Calm   11.1 km/h 90% 0.5 mm 16 W/m2
09:29 5.5 °C 4.0 °C 1001.6 hPa NW 11.1 km/h 15.8 km/h 90% 1.0 mm 16 W/m2
09:34 5.8 °C 3.9 °C 1001.9 hPa NW 6.1 km/h 21.9 km/h 88% 1.0 mm 19 W/m2
09:39 5.8 °C 3.8 °C 1001.9 hPa NW 5.0 km/h 21.9 km/h 87% 1.0 mm 20 W/m2
09:44 5.7 °C 3.7 °C 1001.9 hPa NNW 3.5 km/h 9.7 km/h 87% 1.3 mm 20 W/m2
09:49 5.6 °C 3.8 °C 1001.9 hPa NNW 3.5 km/h 9.7 km/h 88% 1.0 mm 21 W/m2
09:54 5.6 °C 3.8 °C 1001.9 hPa NNW 9.7 km/h 11.1 km/h 88% 1.3 mm 23 W/m2
09:59 5.6 °C 3.9 °C 1001.9 hPa NNW 6.1 km/h 11.1 km/h 89% 1.3 mm 24 W/m2
10:04 5.6 °C 3.9 °C 1001.9 hPa NW 6.1 km/h 11.1 km/h 89% 1.3 mm 24 W/m2
10:09 5.6 °C 3.9 °C 1001.9 hPa WNW 2.6 km/h 9.7 km/h 89% 1.5 mm 27 W/m2
10:14 5.5 °C 4.0 °C 1002.3 hPa NW 3.5 km/h 9.7 km/h 90% 1.5 mm 29 W/m2
10:19 5.5 °C 4.0 °C 1002.3 hPa NW 2.6 km/h 8.7 km/h 90% 1.5 mm 28 W/m2
10:24 5.5 °C 4.2 °C 1002.3 hPa NW 2.6 km/h 7.2 km/h 91% 1.5 mm 29 W/m2
10:29 5.5 °C 4.3 °C 1002.3 hPa NW 3.5 km/h 7.2 km/h 92% 1.5 mm 30 W/m2
10:34 5.5 °C 4.3 °C 1002.3 hPa NW 7.2 km/h 9.7 km/h 92% 1.8 mm 32 W/m2
10:39 5.4 °C 4.3 °C 1002.3 hPa NNW 11.1 km/h 14.8 km/h 93% 2.0 mm 24 W/m2
10:44 5.3 °C 4.3 °C 1002.3 hPa NNW 7.2 km/h 14.8 km/h 93% 2.3 mm 26 W/m2
10:49 5.3 °C 4.3 °C 1002.3 hPa NNW 5.0 km/h 14.8 km/h 93% 2.8 mm 27 W/m2
10:54 5.2 °C 4.2 °C 1002.3 hPa NNW 3.5 km/h 11.1 km/h 93% 2.8 mm 26 W/m2
10:59 5.2 °C 4.2 °C 1002.3 hPa NNW 6.1 km/h 11.1 km/h 93% 3.0 mm 24 W/m2
11:04 5.2 °C 4.3 °C 1001.9 hPa NNW 5.0 km/h 11.1 km/h 94% 3.3 mm 22 W/m2
11:09 5.1 °C 4.2 °C 1001.9 hPa NW 7.2 km/h 13.4 km/h 94% 3.3 mm 24 W/m2
11:14 5.0 °C 4.1 °C 1001.9 hPa NW 7.2 km/h 13.4 km/h 94% 3.6 mm 35 W/m2
11:19 5.0 °C 4.1 °C 1001.9 hPa NW 8.7 km/h 13.4 km/h 94% 3.3 mm 59 W/m2
11:24 5.0 °C 4.1 °C 1001.9 hPa NW 9.7 km/h 14.8 km/h 94% 3.3 mm 68 W/m2
11:29 5.1 °C 4.2 °C 1001.9 hPa NW 8.7 km/h 14.8 km/h 94% 3.0 mm 68 W/m2
11:34 5.1 °C 4.2 °C 1001.9 hPa NW 7.2 km/h 13.4 km/h 94% 2.8 mm 66 W/m2
11:39 5.2 °C 4.3 °C 1001.9 hPa NNW 2.6 km/h 13.4 km/h 94% 2.3 mm 72 W/m2
11:44 5.3 °C 4.3 °C 1001.9 hPa NNW 7.2 km/h 11.1 km/h 93% 1.8 mm 80 W/m2
11:49 5.4 °C 4.3 °C 1001.9 hPa NNW 6.1 km/h 11.1 km/h 93% 1.3 mm 83 W/m2
11:54 5.4 °C 4.3 °C 1001.9 hPa NNW 6.1 km/h 12.2 km/h 93% 1.3 mm 86 W/m2
11:59 5.6 °C 4.6 °C 1001.9 hPa NNW 6.1 km/h 12.2 km/h 93% 1.0 mm 88 W/m2
12:04 5.7 °C 4.7 °C 1001.9 hPa NNW 7.2 km/h 14.8 km/h 93% 1.0 mm 83 W/m2
12:09 5.7 °C 4.5 °C 1001.9 hPa NNW 6.1 km/h 14.8 km/h 92% 0.5 mm 76 W/m2
12:14 5.7 °C 4.3 °C 1001.9 hPa NNW 7.2 km/h 14.8 km/h 91% 0.3 mm 69 W/m2
12:19 5.6 °C 4.1 °C 1001.9 hPa NNW 7.2 km/h 14.8 km/h 90% 0.3 mm 69 W/m2
12:24 5.6 °C 4.1 °C 1001.9 hPa NNW 9.7 km/h 14.8 km/h 90% 0.3 mm 71 W/m2
12:29 5.6 °C 4.2 °C 1001.9 hPa NNW 9.7 km/h 15.8 km/h 91% 0.3 mm 74 W/m2
12:34 5.6 °C 4.2 °C 1001.9 hPa North 8.7 km/h 15.8 km/h 91% 0.3 mm 77 W/m2
12:39 5.7 °C 4.3 °C 1001.9 hPa North 7.2 km/h 14.8 km/h 91% 0.3 mm 88 W/m2
12:44 5.8 °C 4.6 °C 1001.9 hPa North 5.0 km/h 13.4 km/h 92% 0.5 mm 98 W/m2
12:49 5.9 °C 4.7 °C 1001.9 hPa North 5.0 km/h 9.7 km/h 92% 0.5 mm 111 W/m2
12:54 6.1 °C 4.7 °C 1001.9 hPa North 5.0 km/h 9.7 km/h 91% 0.5 mm 118 W/m2
12:59 6.2 °C 5.0 °C 1001.9 hPa North 3.5 km/h 9.7 km/h 92% 0.5 mm 114 W/m2
13:04 6.4 °C 5.1 °C 1002.3 hPa North 5.0 km/h 8.7 km/h 91% 0.3 mm 107 W/m2
13:09 6.5 °C 5.1 °C 1001.9 hPa North 2.6 km/h 8.7 km/h 91% 0.3 mm 103 W/m2
13:14 6.8 °C 5.4 °C 1002.3 hPa NNE 6.1 km/h 8.7 km/h 91% 0.3 mm 100 W/m2
13:19 7.0 °C 5.3 °C 1001.9 hPa North 3.5 km/h 7.2 km/h 89% 0.3 mm 98 W/m2
13:24 7.3 °C 5.4 °C 1002.3 hPa North 1.1 km/h 7.2 km/h 88% 0.3 mm 98 W/m2
13:29 7.9 °C 6.1 °C 1002.3 hPa NNE 2.6 km/h 6.1 km/h 88% 0.3 mm 106 W/m2
13:34 8.4 °C 6.4 °C 1002.3 hPa NE 1.1 km/h 3.5 km/h 87% 0.3 mm 110 W/m2
13:39 9.0 °C 6.6 °C 1002.3 hPa Calm   3.5 km/h 85% 0.3 mm 121 W/m2
13:44 10.3 °C 7.6 °C 1002.3 hPa Calm   3.5 km/h 83% 0.0 mm 115 W/m2
13:49 10.6 °C 6.9 °C 1002.3 hPa West 2.6 km/h 6.1 km/h 78% 0.0 mm 117 W/m2
13:54 10.3 °C 6.3 °C 1002.3 hPa West 2.6 km/h 6.1 km/h 76% 0.0 mm 102 W/m2
13:59 9.8 °C 6.2 °C 1002.6 hPa West 1.1 km/h 6.1 km/h 78% 0.0 mm 108 W/m2
14:04 10.3 °C 6.6 °C 1002.6 hPa WSW 1.1 km/h 5.0 km/h 78% 0.0 mm 118 W/m2
14:09 11.3 °C 7.2 °C 1002.6 hPa Calm   3.5 km/h 76% 0.0 mm 167 W/m2
14:14 11.8 °C 7.1 °C 1002.9 hPa Calm   5.0 km/h 73% 0.0 mm 163 W/m2
14:19 11.0 °C 5.7 °C 1002.6 hPa West 2.6 km/h 5.0 km/h 70% 0.0 mm 166 W/m2
14:24 10.5 °C 5.7 °C 1002.9 hPa West 2.6 km/h 5.0 km/h 72% 0.0 mm 148 W/m2
14:29 10.0 °C 5.4 °C 1002.9 hPa WNW 2.6 km/h 5.0 km/h 73% 0.0 mm 131 W/m2
14:34 9.6 °C 5.2 °C 1002.9 hPa WNW 3.5 km/h 5.0 km/h 74% 0.0 mm 113 W/m2
14:39 9.3 °C 5.3 °C 1002.9 hPa WSW 1.1 km/h 6.1 km/h 76% 0.0 mm 87 W/m2
14:44 9.2 °C 5.2 °C 1003.3 hPa WSW 2.6 km/h 6.1 km/h 76% 0.0 mm 77 W/m2
14:49 9.1 °C 5.1 °C 1003.3 hPa SW 2.6 km/h 6.1 km/h 76% 0.0 mm 65 W/m2
14:54 9.0 °C 4.8 °C 1003.3 hPa SSW 6.1 km/h 7.2 km/h 75% 0.0 mm 74 W/m2
14:59 8.9 °C 5.3 °C 1003.3 hPa South 5.0 km/h 9.7 km/h 78% 0.0 mm 71 W/m2
15:04 8.8 °C 5.2 °C 1003.3 hPa South 5.0 km/h 9.7 km/h 78% 0.0 mm 64 W/m2
15:09 8.6 °C 5.0 °C 1003.6 hPa SSW 5.0 km/h 9.7 km/h 78% 0.0 mm 64 W/m2
15:14 8.6 °C 5.2 °C 1003.3 hPa SW 6.1 km/h 9.7 km/h 79% 0.0 mm 67 W/m2
15:19 8.6 °C 5.2 °C 1003.6 hPa SW 3.5 km/h 8.7 km/h 79% 0.0 mm 67 W/m2
15:36 8.9 °C 5.3 °C 1003.9 hPa SW 6.1 km/h 8.7 km/h 78% 0.0 mm 59 W/m2
15:41 8.7 °C 5.1 °C 1003.9 hPa SW 8.7 km/h 9.7 km/h 78% 0.0 mm 57 W/m2
15:46 8.6 °C 5.0 °C 1003.9 hPa SW 3.5 km/h 9.7 km/h 78% 0.0 mm 62 W/m2
15:51 8.7 °C 4.9 °C 1003.9 hPa WSW 2.6 km/h 9.7 km/h 77% 0.0 mm 55 W/m2
15:56 8.8 °C 5.0 °C 1003.9 hPa WSW 2.6 km/h 8.7 km/h 77% 0.0 mm 57 W/m2
16:01 8.7 °C 4.9 °C 1004.3 hPa SW 3.5 km/h 8.7 km/h 77% 0.0 mm 47 W/m2
16:06 8.6 °C 5.0 °C 1004.6 hPa SW 5.0 km/h 8.7 km/h 78% 0.0 mm 39 W/m2
16:11 8.6 °C 5.0 °C 1004.3 hPa SW 8.7 km/h 12.2 km/h 78% 0.0 mm 31 W/m2
16:16 8.6 °C 4.8 °C 1004.3 hPa SW 9.7 km/h 14.8 km/h 77% 0.0 mm 22 W/m2
16:21 8.6 °C 4.8 °C 1004.6 hPa SW 14.8 km/h 15.8 km/h 77% 0.0 mm 14 W/m2
16:26 8.6 °C 4.8 °C 1004.6 hPa SW 12.2 km/h 18.3 km/h 77% 0.0 mm 7 W/m2
16:31 8.6 °C 5.0 °C 1004.6 hPa SW 9.7 km/h 21.9 km/h 78% 0.0 mm 4 W/m2
16:36 8.9 °C 5.7 °C 1004.6 hPa WSW 11.1 km/h 21.9 km/h 80% 0.0 mm 2 W/m2
16:41 9.3 °C 6.1 °C 1004.6 hPa SW 21.9 km/h 30.6 km/h 80% 0.0 mm 2 W/m2
16:46 9.4 °C 6.3 °C 1004.6 hPa SW 14.8 km/h 30.6 km/h 81% 0.0 mm 2 W/m2
16:51 9.5 °C 6.6 °C 1005.0 hPa SSW 5.0 km/h 30.6 km/h 82% 0.0 mm 0 W/m2
16:56 9.6 °C 6.5 °C 1004.6 hPa South 6.1 km/h 19.5 km/h 81% 0.0 mm 0 W/m2
17:01 9.7 °C 6.6 °C 1005.0 hPa SSE 3.5 km/h 14.8 km/h 81% 0.0 mm 0 W/m2
17:06 9.8 °C 6.5 °C 1005.0 hPa SSE 1.1 km/h 11.1 km/h 80% 0.0 mm 0 W/m2
17:11 9.9 °C 6.6 °C 1005.0 hPa East 7.2 km/h 9.7 km/h 80% 0.0 mm 0 W/m2
17:16 9.6 °C 6.2 °C 1005.0 hPa NE 7.2 km/h 11.1 km/h 79% 0.0 mm 0 W/m2
17:21 8.7 °C 5.6 °C 1005.3 hPa NNE 5.0 km/h 11.1 km/h 81% 0.0 mm 0 W/m2
17:26 8.4 °C 5.3 °C 1005.3 hPa NE 1.1 km/h 9.7 km/h 81% 0.0 mm 0 W/m2
17:31 8.1 °C 5.2 °C 1005.6 hPa NE 2.6 km/h 7.2 km/h 82% 0.0 mm 0 W/m2
17:36 7.9 °C 5.0 °C 1005.6 hPa East 5.0 km/h 8.7 km/h 82% 0.0 mm 0 W/m2
17:46 9.2 °C 5.4 °C 1005.6 hPa ESE 15.8 km/h 23.3 km/h 77% 0.0 mm 0 W/m2
17:51 9.4 °C 5.4 °C 1005.6 hPa ESE 8.7 km/h 23.3 km/h 76% 0.0 mm 0 W/m2
17:56 9.3 °C 5.3 °C 1006.0 hPa ESE 9.7 km/h 23.3 km/h 76% 0.0 mm 0 W/m2
18:01 9.2 °C 5.2 °C 1006.0 hPa ESE 3.5 km/h 15.8 km/h 76% 0.0 mm 0 W/m2
18:06 9.1 °C 5.1 °C 1006.0 hPa East 3.5 km/h 15.8 km/h 76% 0.0 mm 0 W/m2
18:11 8.9 °C 5.1 °C 1006.3 hPa ENE 5.0 km/h 12.2 km/h 77% 0.0 mm 0 W/m2
18:16 8.8 °C 5.0 °C 1006.3 hPa East 5.0 km/h 9.7 km/h 77% 0.0 mm 0 W/m2
18:21 8.7 °C 5.1 °C 1006.7 hPa East 2.6 km/h 9.7 km/h 78% 0.0 mm 0 W/m2
18:26 8.6 °C 5.0 °C 1006.7 hPa East 5.0 km/h 8.7 km/h 78% 0.0 mm 0 W/m2
18:31 8.7 °C 5.3 °C 1006.7 hPa Calm   9.7 km/h 79% 0.0 mm 0 W/m2
18:36 8.6 °C 5.2 °C 1006.3 hPa East 1.1 km/h 9.7 km/h 79% 0.0 mm 0 W/m2
18:41 8.7 °C 5.4 °C 1006.7 hPa NE 6.1 km/h 7.2 km/h 80% 0.0 mm 0 W/m2
18:46 9.0 °C 6.4 °C 1006.7 hPa Calm   7.2 km/h 84% 0.0 mm 0 W/m2
18:51 9.1 °C 6.6 °C 1006.7 hPa East 1.1 km/h 7.2 km/h 84% 0.0 mm 0 W/m2
18:56 9.2 °C 6.7 °C 1007.0 hPa SW 1.1 km/h 3.5 km/h 84% 0.0 mm 0 W/m2
19:01 9.2 °C 6.7 °C 1007.0 hPa WSW 9.7 km/h 19.5 km/h 84% 0.0 mm 0 W/m2
19:06 9.5 °C 6.9 °C 1007.3 hPa WSW 9.7 km/h 19.5 km/h 84% 0.0 mm 0 W/m2
19:11 9.6 °C 7.1 °C 1007.0 hPa WSW 7.2 km/h 19.5 km/h 84% 0.0 mm 0 W/m2
19:16 9.7 °C 7.1 °C 1007.0 hPa SW 8.7 km/h 17.2 km/h 84% 0.0 mm 0 W/m2
19:21 9.7 °C 7.1 °C 1007.0 hPa SW 9.7 km/h 21.9 km/h 84% 0.0 mm 0 W/m2
19:26 9.7 °C 7.1 °C 1007.0 hPa SW 9.7 km/h 21.9 km/h 84% 0.0 mm 0 W/m2
19:31 9.6 °C 7.1 °C 1007.3 hPa SSW 13.4 km/h 21.9 km/h 84% 0.0 mm 0 W/m2
19:36 9.7 °C 7.1 °C 1007.3 hPa SW 13.4 km/h 21.9 km/h 84% 0.0 mm 0 W/m2
19:41 9.6 °C 6.8 °C 1007.0 hPa WSW 17.2 km/h 30.6 km/h 83% 0.0 mm 0 W/m2
19:46 9.6 °C 7.1 °C 1007.0 hPa WSW 13.4 km/h 30.6 km/h 84% 0.0 mm 0 W/m2
19:51 9.6 °C 7.1 °C 1007.3 hPa SW 15.8 km/h 25.6 km/h 84% 0.0 mm 0 W/m2
19:56 9.5 °C 7.1 °C 1007.3 hPa SW 12.2 km/h 21.9 km/h 85% 0.0 mm 0 W/m2
20:01 9.5 °C 7.1 °C 1007.0 hPa SW 7.2 km/h 18.3 km/h 85% 0.0 mm 0 W/m2
20:06 9.4 °C 6.8 °C 1007.0 hPa WSW 3.5 km/h 18.3 km/h 84% 0.0 mm 0 W/m2
20:11 9.3 °C 6.7 °C 1007.3 hPa WSW 5.0 km/h 15.8 km/h 84% 0.0 mm 0 W/m2
20:16 9.3 °C 6.7 °C 1007.3 hPa WNW 6.1 km/h 9.7 km/h 84% 0.0 mm 0 W/m2
20:21 8.3 °C 5.8 °C 1007.0 hPa NW 6.1 km/h 13.4 km/h 84% 0.0 mm 0 W/m2
20:26 7.9 °C 5.4 °C 1007.0 hPa NW 6.1 km/h 13.4 km/h 84% 0.0 mm 0 W/m2
20:31 7.9 °C 5.7 °C 1007.0 hPa NW 6.1 km/h 14.8 km/h 86% 0.0 mm 0 W/m2
20:36 8.0 °C 5.9 °C 1007.3 hPa NW 12.2 km/h 14.8 km/h 87% 0.0 mm 0 W/m2
20:41 7.9 °C 5.9 °C 1007.0 hPa NW 6.1 km/h 14.8 km/h 87% 0.0 mm 0 W/m2
20:46 7.8 °C 5.8 °C 1007.0 hPa NW 6.1 km/h 14.8 km/h 87% 0.0 mm 0 W/m2
20:51 7.8 °C 5.9 °C 1007.3 hPa NNW 9.7 km/h 17.2 km/h 88% 0.0 mm 0 W/m2
20:56 7.8 °C 5.9 °C 1007.0 hPa NW 9.7 km/h 17.2 km/h 88% 0.0 mm 0 W/m2
21:01 7.6 °C 5.9 °C 1007.0 hPa NW 9.7 km/h 17.2 km/h 89% 0.0 mm 0 W/m2
21:06 7.5 °C 5.8 °C 1007.0 hPa NW 9.7 km/h 17.2 km/h 89% 0.0 mm 0 W/m2
21:11 7.5 °C 5.9 °C 1007.3 hPa WNW 6.1 km/h 14.8 km/h 90% 0.0 mm 0 W/m2
21:16 7.7 °C 6.3 °C 1007.0 hPa NNW 7.2 km/h 17.2 km/h 91% 0.0 mm 0 W/m2
21:21 8.6 °C 7.4 °C 1007.0 hPa WSW 19.5 km/h 34.3 km/h 92% 0.0 mm 0 W/m2
21:26 8.8 °C 7.4 °C 1007.3 hPa WSW 21.9 km/h 37.8 km/h 91% 0.0 mm 0 W/m2
21:31 8.6 °C 6.9 °C 1007.0 hPa WSW 25.6 km/h 37.8 km/h 89% 0.3 mm 0 W/m2
21:35 8.4 °C 6.8 °C 1007.3 hPa West 24.5 km/h 37.8 km/h 90% 0.5 mm 0 W/m2
21:40 8.2 °C 6.8 °C 1007.3 hPa WSW 18.3 km/h 37.8 km/h 91% 0.5 mm 0 W/m2
21:45 8.0 °C 6.8 °C 1007.7 hPa SW 17.2 km/h 37.8 km/h 92% 1.0 mm 0 W/m2
21:50 7.8 °C 6.6 °C 1007.3 hPa SW 14.8 km/h 33.1 km/h 92% 1.3 mm 0 W/m2
21:55 7.8 °C 6.6 °C 1007.3 hPa West 20.9 km/h 31.7 km/h 92% 1.3 mm 0 W/m2
22:00 7.8 °C 6.6 °C 1007.7 hPa West 13.4 km/h 31.7 km/h 92% 1.3 mm 0 W/m2
22:05 7.7 °C 6.5 °C 1007.7 hPa West 14.8 km/h 31.7 km/h 92% 1.3 mm 0 W/m2
22:10 7.6 °C 6.4 °C 1007.3 hPa WSW 14.8 km/h 28.0 km/h 92% 1.3 mm 0 W/m2
22:15 7.6 °C 6.4 °C 1007.7 hPa WSW 13.4 km/h 27.0 km/h 92% 1.3 mm 0 W/m2
22:20 7.5 °C 6.1 °C 1007.7 hPa WSW 14.8 km/h 25.6 km/h 91% 1.3 mm 0 W/m2
22:25 7.5 °C 6.1 °C 1007.7 hPa West 12.2 km/h 28.0 km/h 91% 1.8 mm 0 W/m2
22:30 7.6 °C 6.4 °C 1007.7 hPa West 8.7 km/h 28.0 km/h 92% 2.0 mm 0 W/m2
22:35 7.8 °C 6.6 °C 1008.0 hPa West 15.8 km/h 28.0 km/h 92% 2.3 mm 0 W/m2
22:40 7.8 °C 6.6 °C 1007.3 hPa West 12.2 km/h 28.0 km/h 92% 2.3 mm 0 W/m2
22:45 7.9 °C 6.7 °C 1007.7 hPa WSW 6.1 km/h 25.6 km/h 92% 2.3 mm 0 W/m2
22:50 7.9 °C 6.7 °C 1007.3 hPa West 2.6 km/h 25.6 km/h 92% 2.0 mm 0 W/m2
22:55 7.9 °C 6.7 °C 1007.7 hPa WSW 2.6 km/h 9.7 km/h 92% 2.3 mm 0 W/m2
23:00 7.8 °C 6.6 °C 1008.0 hPa NNW 6.1 km/h 8.7 km/h 92% 2.3 mm 0 W/m2
23:05 7.4 °C 6.2 °C 1008.0 hPa North 2.6 km/h 9.7 km/h 92% 2.3 mm 0 W/m2
23:10 7.2 °C 6.0 °C 1007.7 hPa North 7.2 km/h 9.7 km/h 92% 2.8 mm 0 W/m2
23:15 7.0 °C 5.9 °C 1007.7 hPa North 5.0 km/h 15.8 km/h 93% 2.8 mm 0 W/m2
23:35 6.8 °C 6.1 °C 1008.0 hPa NW 6.1 km/h 8.7 km/h 95% 2.0 mm 0 W/m2
23:40 7.1 °C 6.3 °C 1008.0 hPa WNW 12.2 km/h 19.5 km/h 95% 2.8 mm 0 W/m2
23:45 7.8 °C 7.3 °C 1008.0 hPa SW 19.5 km/h 31.7 km/h 97% 3.0 mm 0 W/m2
23:50 7.8 °C 7.3 °C 1008.0 hPa SW 15.8 km/h 31.7 km/h 97% 3.0 mm 0 W/m2
Northern Hawkes Bay. New Zealand Historic Data
Compliments of Weather Underground - 2.25 mb